createdAt,value
2023-05-23T00:04:39.784Z,15.23
2023-05-23T00:09:42.135Z,15.15
2023-05-23T00:14:45.775Z,15.08
2023-05-23T00:19:48.051Z,15.16
2023-05-23T00:24:50.595Z,15.20
2023-05-23T00:29:54.129Z,15.06
2023-05-23T00:34:56.490Z,14.90
2023-05-23T00:39:58.869Z,14.79
2023-05-23T00:45:02.402Z,14.77
2023-05-23T00:50:05.030Z,14.72
2023-05-23T00:55:08.356Z,14.67
2023-05-23T01:00:13.395Z,14.61
2023-05-23T01:05:16.911Z,14.53
2023-05-23T01:10:21.709Z,14.50
2023-05-23T01:15:32.465Z,14.51
2023-05-23T01:20:39.106Z,14.48
2023-05-23T01:26:13.984Z,14.55
2023-05-23T01:31:18.725Z,14.62
2023-05-23T01:36:21.273Z,14.77
2023-05-23T01:41:23.657Z,14.85
2023-05-23T01:46:28.764Z,14.94
2023-05-23T01:51:31.585Z,14.97
2023-05-23T01:56:34.293Z,15.15
2023-05-23T02:01:38.137Z,15.25
2023-05-23T02:06:40.303Z,15.29
2023-05-23T02:11:42.480Z,15.36
2023-05-23T02:16:46.074Z,15.31
2023-05-23T02:21:48.517Z,15.24
2023-05-23T02:26:50.669Z,15.21
2023-05-23T02:31:54.121Z,15.15
2023-05-23T02:36:55.939Z,15.23
2023-05-23T02:41:58.437Z,15.26
2023-05-23T02:47:02.025Z,15.29
2023-05-23T02:52:04.344Z,15.36
2023-05-23T02:57:06.787Z,15.39
2023-05-23T03:02:10.063Z,15.35
2023-05-23T03:07:20.582Z,15.28
2023-05-23T03:12:28.090Z,15.30
2023-05-23T03:17:31.645Z,15.27
2023-05-23T03:22:34.176Z,15.42
2023-05-23T03:27:36.292Z,15.57
2023-05-23T03:32:40.461Z,15.66
2023-05-23T03:37:42.719Z,15.67
2023-05-23T03:42:45.044Z,15.60
2023-05-23T03:47:48.706Z,15.65
2023-05-23T03:52:51.462Z,15.54
2023-05-23T03:57:53.521Z,15.77
2023-05-23T04:02:57.159Z,15.75
2023-05-23T04:07:59.444Z,15.65
2023-05-23T04:13:01.714Z,15.54
2023-05-23T04:18:05.347Z,15.45
2023-05-23T04:23:07.556Z,15.46
2023-05-23T04:28:09.804Z,15.50
2023-05-23T04:33:13.654Z,15.38
2023-05-23T04:38:15.706Z,15.40
2023-05-23T04:43:17.716Z,15.48
2023-05-23T04:48:21.167Z,15.48
2023-05-23T04:53:23.314Z,15.53
2023-05-23T04:58:26.321Z,15.58
2023-05-23T05:03:29.701Z,15.67
2023-05-23T05:08:31.625Z,15.62
2023-05-23T05:13:33.375Z,15.60
2023-05-23T05:18:37.361Z,15.68
2023-05-23T05:23:39.132Z,15.74
2023-05-23T05:28:40.968Z,15.92
2023-05-23T05:33:44.565Z,15.98
2023-05-23T05:38:46.848Z,16.07
2023-05-23T05:43:49.330Z,16.08
2023-05-23T05:48:52.665Z,16.03
2023-05-23T05:53:54.749Z,16.12
2023-05-23T05:58:56.604Z,16.39
2023-05-23T06:04:00.265Z,16.56
2023-05-23T06:09:02.280Z,17.05
2023-05-23T06:14:04.263Z,17.61
2023-05-23T06:19:07.459Z,17.88
2023-05-23T06:24:10.109Z,18.27
2023-05-23T06:29:12.803Z,19.20
2023-05-23T06:34:16.811Z,19.39
2023-05-23T06:39:19.020Z,18.70
2023-05-23T06:44:21.287Z,18.61
2023-05-23T06:49:25.304Z,19.26
2023-05-23T06:54:27.719Z,19.23
2023-05-23T06:59:29.779Z,18.89
2023-05-23T07:04:33.453Z,18.48
2023-05-23T07:09:35.714Z,18.25
2023-05-23T07:14:38.053Z,18.65
2023-05-23T07:19:41.194Z,18.40
2023-05-23T07:24:43.261Z,18.25
2023-05-23T07:29:45.461Z,18.40
2023-05-23T07:34:48.832Z,18.61
2023-05-23T07:39:51.106Z,18.39
2023-05-23T07:44:53.993Z,18.69
2023-05-23T07:49:57.534Z,19.17
2023-05-23T07:55:00.153Z,19.57
2023-05-23T08:00:02.336Z,19.75
2023-05-23T08:05:06.662Z,20.90
2023-05-23T08:10:09.576Z,20.62
2023-05-23T08:15:11.834Z,21.38
2023-05-23T08:20:15.351Z,21.37
2023-05-23T08:25:17.421Z,21.39
2023-05-23T08:30:19.576Z,21.64
2023-05-23T08:35:23.388Z,21.28
2023-05-23T08:40:27.167Z,20.88
2023-05-23T08:45:29.451Z,21.10
2023-05-23T08:50:32.820Z,20.88
2023-05-23T08:55:35.238Z,20.32
2023-05-23T09:00:37.215Z,20.07
2023-05-23T09:05:41.771Z,20.34
2023-05-23T09:10:43.889Z,20.15
2023-05-23T09:15:57.541Z,19.74
2023-05-23T09:21:01.155Z,19.61
2023-05-23T09:26:04.217Z,19.69
2023-05-23T09:31:08.109Z,20.04
2023-05-23T09:36:11.669Z,19.77
2023-05-23T09:41:13.635Z,20.47
2023-05-23T09:46:15.950Z,19.42
2023-05-23T09:51:21.989Z,18.50
2023-05-23T09:56:26.803Z,17.75
2023-05-23T10:01:32.535Z,17.75
2023-05-23T10:06:41.782Z,17.73
2023-05-23T10:12:16.417Z,18.04
2023-05-23T10:17:21.009Z,17.81
2023-05-23T10:22:24.979Z,17.87
2023-05-23T10:27:28.073Z,17.87
2023-05-23T10:32:31.641Z,18.00
2023-05-23T10:37:40.311Z,17.90
2023-05-23T10:42:49.870Z,17.58
2023-05-23T10:47:52.989Z,17.47
2023-05-23T10:52:56.258Z,17.24
2023-05-23T10:58:11.676Z,17.32
2023-05-23T11:03:14.338Z,17.47
2023-05-23T11:08:20.474Z,17.40
2023-05-23T11:13:23.436Z,17.40
2023-05-23T11:18:27.940Z,17.61
2023-05-23T11:23:42.169Z,18.20
2023-05-23T11:28:56.733Z,18.74
2023-05-23T11:33:59.127Z,18.64
2023-05-23T11:39:04.389Z,18.48
2023-05-23T11:44:12.041Z,18.57
2023-05-23T11:49:14.346Z,18.48
2023-05-23T11:54:17.730Z,18.34
2023-05-23T11:59:20.058Z,18.37
2023-05-23T12:04:22.801Z,18.18
2023-05-23T12:09:26.619Z,17.88
2023-05-23T12:14:29.525Z,17.86
2023-05-23T12:19:32.311Z,17.79
2023-05-23T12:24:35.733Z,17.68
2023-05-23T12:29:37.841Z,17.73
2023-05-23T12:34:41.693Z,17.62
2023-05-23T12:39:44.815Z,17.66
2023-05-23T12:44:51.651Z,17.69
2023-05-23T12:49:53.586Z,17.71
2023-05-23T12:54:56.773Z,17.86
2023-05-23T13:00:00.092Z,18.18
2023-05-23T13:05:02.197Z,18.14
2023-05-23T13:10:06.924Z,18.04
2023-05-23T13:15:10.045Z,18.06
2023-05-23T13:20:12.567Z,18.01
2023-05-23T13:25:16.158Z,17.79
2023-05-23T13:30:19.503Z,17.52
2023-05-23T13:35:22.888Z,17.40
2023-05-23T13:40:27.964Z,17.28
2023-05-23T13:45:31.254Z,17.45
2023-05-23T13:50:34.175Z,17.23
2023-05-23T13:55:38.925Z,17.15
2023-05-23T14:00:41.771Z,17.06
2023-05-23T14:05:45.093Z,17.29
2023-05-23T14:10:49.469Z,17.25
2023-05-23T14:15:52.292Z,16.95
2023-05-23T14:20:55.118Z,16.73
2023-05-23T14:26:00.014Z,16.59
2023-05-23T14:31:03.351Z,16.31
2023-05-23T14:36:07.182Z,16.09
2023-05-23T14:41:10.839Z,15.87
2023-05-23T14:46:13.067Z,15.74
2023-05-23T14:51:26.872Z,15.10
2023-05-23T14:56:38.434Z,14.84
2023-05-23T15:01:41.047Z,14.67
2023-05-23T15:06:43.463Z,14.59
2023-05-23T15:11:47.233Z,14.61
2023-05-23T15:16:49.509Z,14.58
2023-05-23T15:21:52.043Z,14.71
2023-05-23T15:26:56.819Z,14.74
2023-05-23T15:32:02.382Z,14.80
2023-05-23T15:37:04.642Z,14.77
2023-05-23T15:42:08.289Z,14.77
2023-05-23T15:47:10.510Z,14.76
2023-05-23T15:52:12.541Z,14.58
2023-05-23T15:57:15.874Z,14.44
2023-05-23T16:02:17.946Z,14.44
2023-05-23T16:07:19.806Z,14.39
2023-05-23T16:12:22.911Z,14.38
2023-05-23T16:17:25.033Z,14.34
2023-05-23T16:22:26.795Z,14.21
2023-05-23T16:27:30.371Z,13.94
2023-05-23T16:32:32.435Z,13.91
2023-05-23T16:37:34.187Z,13.73
2023-05-23T16:42:38.298Z,13.67
2023-05-23T16:47:40.522Z,13.52
2023-05-23T16:52:43.075Z,13.39
2023-05-23T16:57:46.191Z,13.26
2023-05-23T17:02:48.572Z,13.16
2023-05-23T17:07:50.388Z,13.00
2023-05-23T17:12:53.705Z,13.01
2023-05-23T17:17:56.114Z,12.94
2023-05-23T17:22:57.894Z,12.97
2023-05-23T17:28:01.534Z,12.86
2023-05-23T17:33:04.097Z,12.83
2023-05-23T17:38:06.586Z,12.86
2023-05-23T17:43:10.304Z,12.81
2023-05-23T17:48:12.093Z,12.78
2023-05-23T17:53:14.085Z,12.86
2023-05-23T17:58:17.423Z,12.83
2023-05-23T18:03:19.180Z,12.81
2023-05-23T18:08:20.938Z,12.91
2023-05-23T18:13:24.717Z,12.94
2023-05-23T18:18:26.898Z,12.99
2023-05-23T18:23:29.248Z,13.05
2023-05-23T18:28:32.816Z,13.01
2023-05-23T18:33:34.649Z,12.86
2023-05-23T18:38:36.800Z,13.04
2023-05-23T18:43:39.940Z,13.01
2023-05-23T18:48:42.689Z,12.87
2023-05-23T18:53:45.492Z,12.83
2023-05-23T18:58:50.313Z,12.85
2023-05-23T19:03:52.781Z,12.78
2023-05-23T19:08:54.971Z,12.76
2023-05-23T19:13:59.426Z,12.80
2023-05-23T19:19:01.656Z,12.77
2023-05-23T19:24:03.887Z,12.75
2023-05-23T19:29:07.533Z,12.74
2023-05-23T19:34:09.858Z,12.74
2023-05-23T19:39:12.016Z,12.71
2023-05-23T19:44:15.635Z,12.72
2023-05-23T19:49:17.780Z,12.81
2023-05-23T19:54:20.147Z,12.76
2023-05-23T19:59:23.559Z,12.68
2023-05-23T20:04:25.771Z,12.63
2023-05-23T20:09:27.464Z,12.48
2023-05-23T20:14:31.337Z,12.33
2023-05-23T20:19:33.489Z,12.20
2023-05-23T20:24:35.706Z,12.12
2023-05-23T20:29:39.241Z,12.09
2023-05-23T20:34:41.376Z,11.96
2023-05-23T20:39:43.129Z,11.92
2023-05-23T20:44:46.810Z,11.80
2023-05-23T20:49:48.853Z,11.79
2023-05-23T20:54:51.243Z,11.74
2023-05-23T20:59:54.713Z,11.62
2023-05-23T21:04:57.004Z,11.62
2023-05-23T21:09:59.227Z,11.55
2023-05-23T21:15:03.147Z,11.50
2023-05-23T21:20:06.445Z,11.43
2023-05-23T21:25:09.263Z,11.34
2023-05-23T21:30:13.817Z,11.24
2023-05-23T21:35:16.550Z,11.15
2023-05-23T21:40:19.204Z,11.17
2023-05-23T21:45:22.689Z,11.05
2023-05-23T21:50:24.588Z,11.00
2023-05-23T21:55:27.022Z,11.08
2023-05-23T22:00:30.551Z,10.93
2023-05-23T22:05:32.704Z,10.92
2023-05-23T22:10:35.007Z,10.91
2023-05-23T22:15:38.608Z,10.77
2023-05-23T22:20:40.775Z,10.78
2023-05-23T22:25:43.268Z,10.72
2023-05-23T22:30:46.802Z,10.65
2023-05-23T22:35:49.206Z,10.58
2023-05-23T22:40:51.332Z,10.47
2023-05-23T22:45:54.799Z,10.37
2023-05-23T22:50:56.815Z,10.32
2023-05-23T22:55:58.974Z,10.28
2023-05-23T23:01:02.190Z,10.37
2023-05-23T23:06:05.018Z,10.26
2023-05-23T23:11:06.787Z,10.24
2023-05-23T23:16:10.353Z,10.22
2023-05-23T23:21:12.317Z,10.12
2023-05-23T23:26:14.413Z,10.11
2023-05-23T23:31:17.971Z,9.98
2023-05-23T23:36:20.570Z,9.99
2023-05-23T23:41:22.732Z,9.88
2023-05-23T23:46:25.838Z,9.79
2023-05-23T23:51:27.874Z,9.85
2023-05-23T23:56:29.998Z,9.89
